Time;durP1;ratioP1;P1;durP2;ratioP2;P2;SDS_P1;SDS_P2;PMS_P1;PMS_P2;Temp;Humidity;BMP_temperature;BMP_pressure;BME280_temperature;BME280_humidity;BME280_pressure;Samples;Min_cycle;Max_cycle;Signal;HPM_P1;HPM_P2
2021/12/08 00:00:19;;;;;;;;;;;;;;;21.63;26.81;94349.41;1029695;28;1221;-76
2021/12/08 00:00:53;;;;;;;;;;;;;;;21.64;26.75;94347.53;1030193;28;1234;-75
2021/12/08 00:01:23;;;;;;;;;;;;;;;21.62;26.53;94347.06;1023002;29;1232;-74
2021/12/08 00:01:53;;;;;;;;;;;;;;;21.63;26.95;94343.34;1022706;28;1320;-76
2021/12/08 00:02:25;;;;;;;;;;;;;;;21.63;26.81;94340.72;1022852;29;1948;-74
2021/12/08 00:02:55;;;;;;;;;;;;;;;21.63;26.66;94346.00;1023985;28;1265;-75
2021/12/08 00:03:28;;;;;;;;;;;;;;;21.63;26.77;94340.72;1030855;28;1238;-75
2021/12/08 00:03:58;;;;;;;;;;;;;;;21.63;26.73;94338.88;1026677;28;1434;-75
2021/12/08 00:04:28;;;;;;;;;;;;;;;21.63;26.70;94332.81;1031296;28;1211;-75
2021/12/08 00:04:59;;;;;;;;;;;;;;;21.63;26.73;94332.81;1031403;28;1284;-73
2021/12/08 00:05:29;;;;;;;;;;;;;;;21.64;26.94;94331.69;1025631;28;1199;-73
2021/12/08 00:06:00;;;;;;;;;;;;;;;21.63;26.90;94332.81;1027302;28;1369;-73
2021/12/08 00:06:30;;;;;;;;;;;;;;;21.63;26.75;94335.44;1028986;28;1054;-74
2021/12/08 00:07:02;;;;;;;;;;;;;;;21.63;26.75;94327.53;1022247;29;1878;-76
2021/12/08 00:07:33;;;;;;;;;;;;;;;21.64;26.59;94326.44;1027056;28;1104;-74
2021/12/08 00:08:04;;;;;;;;;;;;;;;21.63;26.89;94333.59;1023235;28;1209;-75
2021/12/08 00:08:35;;;;;;;;;;;;;;;21.64;26.73;94334.34;1025848;28;1278;-73
2021/12/08 00:09:16;;;;;;;;;;;;;;;21.62;26.77;94324.13;1028968;28;1250;-73
2021/12/08 00:10:00;;;;;;;;;;;;;;;21.63;26.49;94327.53;1024095;28;1262;-74
2021/12/08 00:13:32;;;;;;;;;;;;;;;21.62;27.09;94316.19;1027610;28;2015;-74
2021/12/08 00:14:02;;;;;;;;;;;;;;;21.62;26.84;94316.19;1029681;28;1071;-74
2021/12/08 00:14:32;;;;;;;;;;;;;;;21.61;26.71;94317.31;1028188;28;959;-74
2021/12/08 00:15:03;;;;;;;;;;;;;;;21.61;26.84;94313.88;1027159;28;1316;-74
2021/12/08 00:15:40;;;;;;;;;;;;;;;21.63;26.96;94316.97;1028915;28;788;-74
2021/12/08 00:16:11;;;;;;;;;;;;;;;21.61;26.77;94309.41;1029061;28;963;-75
2021/12/08 00:16:41;;;;;;;;;;;;;;;21.62;26.78;94310.16;1024790;28;1868;-74
2021/12/08 00:17:11;;;;;;;;;;;;;;;21.62;26.59;94310.94;1024879;28;1292;-74
2021/12/08 00:17:42;;;;;;;;;;;;;;;21.62;26.81;94310.94;1025030;28;1335;-75
2021/12/08 00:18:16;;;;;;;;;;;;;;;21.61;26.97;94308.63;1030995;28;1148;-75
2021/12/08 00:18:48;;;;;;;;;;;;;;;21.62;26.74;94310.94;1040591;28;1213;-72
2021/12/08 00:19:18;;;;;;;;;;;;;;;21.61;26.63;94304.13;1028341;28;1529;-74
2021/12/08 00:19:48;;;;;;;;;;;;;;;21.62;26.88;94310.16;1028990;28;1006;-75
2021/12/08 00:20:19;;;;;;;;;;;;;;;21.62;26.49;94310.16;1028851;28;959;-74
2021/12/08 00:20:52;;;;;;;;;;;;;;;21.63;26.69;94306.44;1028159;28;1210;-74
2021/12/08 00:21:25;;;;;;;;;;;;;;;21.61;26.90;94301.47;1028986;28;980;-74
2021/12/08 00:21:55;;;;;;;;;;;;;;;21.62;26.61;94299.59;1025268;28;1169;-75
2021/12/08 00:22:25;;;;;;;;;;;;;;;21.62;26.71;94304.88;1035071;28;1612;-74
2021/12/08 00:22:56;;;;;;;;;;;;;;;21.61;26.71;94298.84;1035168;28;1311;-75
2021/12/08 00:23:27;;;;;;;;;;;;;;;21.61;26.83;94301.47;1024857;29;761;-75
2021/12/08 00:23:57;;;;;;;;;;;;;;;21.62;26.97;94305.66;1026488;28;1165;-73
2021/12/08 00:24:27;;;;;;;;;;;;;;;21.62;26.92;94305.66;1024559;28;1624;-74
2021/12/08 00:24:57;;;;;;;;;;;;;;;21.62;26.75;94299.59;1030672;28;1449;-74
2021/12/08 00:25:28;;;;;;;;;;;;;;;21.61;26.68;94296.22;1032943;28;1327;-73
2021/12/08 00:25:58;;;;;;;;;;;;;;;21.62;26.74;94296.97;1024717;29;1229;-74
2021/12/08 00:26:29;;;;;;;;;;;;;;;21.61;26.74;94290.16;1024502;29;1341;-76
2021/12/08 00:26:59;;;;;;;;;;;;;;;21.61;26.91;94298.84;1020894;29;1161;-74
2021/12/08 00:27:29;;;;;;;;;;;;;;;21.62;26.69;94294.31;1020702;29;2218;-75
2021/12/08 00:28:00;;;;;;;;;;;;;;;21.62;26.56;94294.31;1024658;28;1105;-73
2021/12/08 00:28:30;;;;;;;;;;;;;;;21.62;26.84;94291.69;1028841;28;810;-75
2021/12/08 00:29:00;;;;;;;;;;;;;;;21.62;26.84;94286.41;1032779;28;1163;-74
2021/12/08 00:29:31;;;;;;;;;;;;;;;21.62;26.50;94291.69;1031912;28;1378;-73
2021/12/08 00:30:01;;;;;;;;;;;;;;;21.62;26.57;94283.78;1032879;28;1196;-75
2021/12/08 00:30:32;;;;;;;;;;;;;;;21.61;26.68;94287.53;1036873;28;816;-73
2021/12/08 00:31:03;;;;;;;;;;;;;;;21.61;26.68;94288.31;1034893;28;1183;-75
2021/12/08 00:31:34;;;;;;;;;;;;;;;21.60;26.79;94276.19;1032951;28;968;-75
2021/12/08 00:32:07;;;;;;;;;;;;;;;21.62;26.87;94274.00;1030012;28;1128;-75
2021/12/08 00:32:37;;;;;;;;;;;;;;;21.61;26.94;94274.34;1028346;28;1966;-74
2021/12/08 00:33:08;;;;;;;;;;;;;;;21.61;26.79;94271.69;1032378;28;1199;-75
2021/12/08 00:33:38;;;;;;;;;;;;;;;21.62;26.81;94270.59;1028845;28;1461;-74
2021/12/08 00:34:08;;;;;;;;;;;;;;;21.61;26.69;94269.06;1031477;28;1219;-74
2021/12/08 00:34:39;;;;;;;;;;;;;;;21.60;26.58;94270.13;1035980;28;1538;-74
2021/12/08 00:35:09;;;;;;;;;;;;;;;21.60;26.98;94267.50;1036725;28;1261;-74
2021/12/08 00:35:45;;;;;;;;;;;;;;;21.61;26.61;94266.44;1036814;28;1154;-74
2021/12/08 00:36:17;;;;;;;;;;;;;;;21.60;26.19;94267.50;1035895;28;1019;-75
2021/12/08 00:36:51;;;;;;;;;;;;;;;21.60;26.69;94262.22;1032065;28;1098;-74
2021/12/08 00:37:23;;;;;;;;;;;;;;;21.61;26.84;94266.44;1032603;28;2275;-74
2021/12/08 00:37:54;;;;;;;;;;;;;;;21.60;26.46;94265.63;1032038;28;1847;-75
2021/12/08 00:38:24;;;;;;;;;;;;;;;21.61;26.48;94259.28;1033704;28;729;-74
2021/12/08 00:38:55;;;;;;;;;;;;;;;21.60;26.62;94263.00;1030943;28;1121;-75
2021/12/08 00:39:25;;;;;;;;;;;;;;;21.61;26.66;94261.16;1028620;28;896;-75
2021/12/08 00:39:56;;;;;;;;;;;;;;;21.61;26.88;94263.78;1024768;28;1313;-74
2021/12/08 00:40:26;;;;;;;;;;;;;;;21.61;26.74;94261.16;1024905;28;1008;-74
2021/12/08 00:40:57;;;;;;;;;;;;;;;21.60;26.56;94259.59;1030300;28;966;-75
2021/12/08 00:41:27;;;;;;;;;;;;;;;21.60;26.60;94259.59;1028484;28;1488;-74
2021/12/08 00:41:57;;;;;;;;;;;;;;;21.61;26.61;94261.16;1030577;28;1113;-74
2021/12/08 00:42:28;;;;;;;;;;;;;;;21.60;26.46;94256.94;1028005;28;2232;-74
2021/12/08 00:42:58;;;;;;;;;;;;;;;21.60;26.39;94255.09;1028454;28;1243;-74
2021/12/08 00:43:28;;;;;;;;;;;;;;;21.60;26.48;94260.38;1032680;28;827;-75
2021/12/08 00:43:59;;;;;;;;;;;;;;;21.60;26.53;94260.38;1032783;28;1164;-74
2021/12/08 00:44:29;;;;;;;;;;;;;;;21.60;26.78;94259.59;1028016;28;1274;-75
2021/12/08 00:44:59;;;;;;;;;;;;;;;21.60;26.44;94260.38;1022526;29;1392;-74
2021/12/08 00:45:29;;;;;;;;;;;;;;;21.61;26.55;94261.16;1020766;29;1182;-74
2021/12/08 00:46:00;;;;;;;;;;;;;;;21.60;26.81;94254.31;1020236;29;1659;-75
2021/12/08 00:46:30;;;;;;;;;;;;;;;21.60;26.49;94254.31;1028701;28;1374;-75
2021/12/08 00:47:01;;;;;;;;;;;;;;;21.61;26.91;94255.88;1028378;28;1327;-74
2021/12/08 00:47:31;;;;;;;;;;;;;;;21.61;26.61;94253.25;1030759;28;1704;-73
2021/12/08 00:48:03;;;;;;;;;;;;;;;21.60;26.43;94249.03;1030470;28;1157;-74
2021/12/08 00:48:34;;;;;;;;;;;;;;;21.60;26.62;94249.03;1028951;28;1252;-74
2021/12/08 00:49:06;;;;;;;;;;;;;;;21.60;26.57;94254.31;1020195;29;1213;-73
2021/12/08 00:49:38;;;;;;;;;;;;;;;21.60;26.32;94256.94;1020723;29;1221;-75
2021/12/08 00:50:09;;;;;;;;;;;;;;;21.60;26.29;94249.03;1020691;29;1185;-74
2021/12/08 00:50:40;;;;;;;;;;;;;;;21.59;26.44;94248.28;1025214;28;1209;-73
2021/12/08 00:51:10;;;;;;;;;;;;;;;21.60;26.44;94259.59;1027888;28;1284;-74
2021/12/08 00:51:41;;;;;;;;;;;;;;;21.58;26.58;94249.38;1025129;28;1512;-74
2021/12/08 00:52:13;;;;;;;;;;;;;;;21.59;26.49;94250.94;1028140;28;1527;-74
2021/12/08 00:52:44;;;;;;;;;;;;;;;21.59;26.71;94250.94;1028307;28;1712;-74
2021/12/08 00:53:14;;;;;;;;;;;;;;;21.59;26.61;94252.78;1024519;29;1066;-73
2021/12/08 00:53:45;;;;;;;;;;;;;;;21.59;27.03;94250.94;1026591;28;1434;-72
2021/12/08 00:54:15;;;;;;;;;;;;;;;21.58;26.30;94252.00;1027798;28;1623;-75
2021/12/08 00:54:45;;;;;;;;;;;;;;;21.60;26.72;94243.75;1024825;28;1114;-72
2021/12/08 00:55:16;;;;;;;;;;;;;;;21.59;26.54;94247.50;1024578;29;1316;-74
2021/12/08 00:55:46;;;;;;;;;;;;;;;21.60;26.84;94247.19;1024231;29;1215;-73
2021/12/08 00:56:16;;;;;;;;;;;;;;;21.59;26.46;94250.16;1028764;28;1359;-74
2021/12/08 00:56:47;;;;;;;;;;;;;;;21.59;26.64;94244.88;1036774;28;1069;-73
2021/12/08 00:57:17;;;;;;;;;;;;;;;21.59;26.74;94247.50;1028476;28;2019;-75
2021/12/08 00:57:47;;;;;;;;;;;;;;;21.58;26.46;94249.38;1028290;28;1094;-75
2021/12/08 00:58:18;;;;;;;;;;;;;;;21.59;26.57;94242.22;1024824;29;1082;-75
2021/12/08 00:58:48;;;;;;;;;;;;;;;21.59;26.57;94252.78;1025447;28;1280;-75
2021/12/08 00:59:18;;;;;;;;;;;;;;;21.58;26.67;94248.59;1027508;28;1997;-74
2021/12/08 00:59:49;;;;;;;;;;;;;;;21.58;26.86;94249.38;1024288;29;1062;-75
2021/12/08 01:00:23;;;;;;;;;;;;;;;21.58;26.46;94241.44;1016752;29;1448;-76
2021/12/08 01:00:54;;;;;;;;;;;;;;;21.59;26.49;94247.50;1021112;29;1282;-75
2021/12/08 01:01:25;;;;;;;;;;;;;;;21.58;26.48;94244.09;1021388;29;1158;-73
2021/12/08 01:01:57;;;;;;;;;;;;;;;21.58;26.71;94243.31;1018019;29;1926;-74
2021/12/08 01:02:28;;;;;;;;;;;;;;;21.58;26.74;94246.72;1019687;29;1938;-74
2021/12/08 01:02:58;;;;;;;;;;;;;;;21.57;26.51;94242.56;1020739;29;1694;-74
2021/12/08 01:03:28;;;;;;;;;;;;;;;21.58;26.43;94245.94;1027400;28;1176;-74
2021/12/08 01:03:59;;;;;;;;;;;;;;;21.58;26.50;94243.31;1028459;28;1105;-74
2021/12/08 01:04:30;;;;;;;;;;;;;;;21.57;26.49;94239.91;1024478;28;1023;-73
2021/12/08 01:05:00;;;;;;;;;;;;;;;21.58;26.31;94235.41;1024505;29;1424;-75
2021/12/08 01:05:35;;;;;;;;;;;;;;;21.58;26.57;94241.44;1025094;28;1010;-74
2021/12/08 01:06:05;;;;;;;;;;;;;;;21.57;26.59;94239.91;1021655;28;1431;-74
2021/12/08 01:06:35;;;;;;;;;;;;;;;21.57;26.54;94236.50;1026781;28;1062;-76
2021/12/08 01:07:06;;;;;;;;;;;;;;;21.59;26.44;94247.50;1030117;28;1152;-74
2021/12/08 01:07:36;;;;;;;;;;;;;;;21.58;26.64;94246.72;1030714;28;2212;-75
2021/12/08 01:08:06;;;;;;;;;;;;;;;21.58;26.62;94251.22;1035305;28;1066;-74
2021/12/08 01:08:37;;;;;;;;;;;;;;;21.58;26.37;94238.03;1032797;28;1008;-73
2021/12/08 01:09:08;;;;;;;;;;;;;;;21.58;26.40;94245.94;1028279;28;1129;-76
2021/12/08 01:09:39;;;;;;;;;;;;;;;21.58;26.71;94248.59;1028506;28;1196;-74
2021/12/08 01:10:11;;;;;;;;;;;;;;;21.58;26.84;94249.38;1025039;28;1177;-74
2021/12/08 01:10:41;;;;;;;;;;;;;;;21.58;26.59;94243.31;1029111;28;1026;-72
2021/12/08 01:11:13;;;;;;;;;;;;;;;21.57;26.66;94245.19;1028346;28;1137;-75
2021/12/08 01:11:43;;;;;;;;;;;;;;;21.58;26.95;94240.66;1028516;28;1109;-75
2021/12/08 01:12:14;;;;;;;;;;;;;;;21.57;26.65;94242.56;1027675;28;1959;-74
2021/12/08 01:12:45;;;;;;;;;;;;;;;21.58;26.68;94246.72;1030252;28;1913;-74
2021/12/08 01:13:15;;;;;;;;;;;;;;;21.57;26.52;94247.81;1018883;29;1320;-72
2021/12/08 01:13:46;;;;;;;;;;;;;;;21.59;26.48;94247.50;1023092;28;1403;-74
2021/12/08 01:14:17;;;;;;;;;;;;;;;21.58;26.50;94243.31;1027656;28;1108;-75
2021/12/08 01:14:47;;;;;;;;;;;;;;;21.57;26.69;94245.19;1028607;28;956;-76
2021/12/08 01:15:18;;;;;;;;;;;;;;;21.57;26.72;94247.81;1032515;28;1280;-75
2021/12/08 01:15:50;;;;;;;;;;;;;;;21.57;26.59;94245.19;1027818;28;1619;-74
2021/12/08 01:16:20;;;;;;;;;;;;;;;21.57;26.71;94255.75;1020306;29;1189;-74
2021/12/08 01:16:51;;;;;;;;;;;;;;;21.58;26.69;94245.94;1020115;29;2318;-75
2021/12/08 01:17:22;;;;;;;;;;;;;;;21.57;26.59;94247.81;1020486;29;1636;-75
2021/12/08 01:17:53;;;;;;;;;;;;;;;21.57;26.52;94249.69;1024450;28;1604;-74
2021/12/08 01:18:23;;;;;;;;;;;;;;;21.58;26.63;94245.94;1024613;28;1367;-71
2021/12/08 01:18:53;;;;;;;;;;;;;;;21.59;26.64;94247.50;1024649;28;1454;-74
2021/12/08 01:19:24;;;;;;;;;;;;;;;21.57;26.48;94242.56;1028281;28;1152;-75
2021/12/08 01:19:54;;;;;;;;;;;;;;;21.58;26.76;94246.72;1023303;29;1327;-74
2021/12/08 01:20:25;;;;;;;;;;;;;;;21.60;26.67;94249.03;1020564;29;1073;-74
2021/12/08 01:20:56;;;;;;;;;;;;;;;21.59;26.74;94247.50;1023755;29;1204;-74
2021/12/08 01:21:26;;;;;;;;;;;;;;;21.59;26.64;94242.22;1027825;28;1224;-75
2021/12/08 01:21:57;;;;;;;;;;;;;;;21.58;26.55;94246.72;1030802;28;1081;-74
2021/12/08 01:22:27;;;;;;;;;;;;;;;21.58;26.68;94241.44;1027721;28;1942;-73
2021/12/08 01:22:57;;;;;;;;;;;;;;;21.58;26.78;94244.09;1024209;29;1214;-75
2021/12/08 01:23:28;;;;;;;;;;;;;;;21.58;26.76;94235.41;1024433;29;1030;-75
2021/12/08 01:23:58;;;;;;;;;;;;;;;21.58;26.43;94235.41;1028614;28;1091;-74
2021/12/08 01:24:29;;;;;;;;;;;;;;;21.58;26.52;94232.75;1028442;28;800;-75
2021/12/08 01:24:59;;;;;;;;;;;;;;;21.58;26.75;94245.94;1032517;28;1308;-74
2021/12/08 01:25:29;;;;;;;;;;;;;;;21.57;26.51;94239.91;1032268;28;1604;-74
2021/12/08 01:26:00;;;;;;;;;;;;;;;21.59;26.88;94239.59;1032441;28;1030;-75
2021/12/08 01:26:30;;;;;;;;;;;;;;;21.57;26.44;94245.19;1032462;28;1573;-73
2021/12/08 01:27:00;;;;;;;;;;;;;;;21.58;26.68;94243.31;1028242;28;1102;-72
2021/12/08 01:27:32;;;;;;;;;;;;;;;21.57;26.76;94244.41;1031697;28;1843;-74
2021/12/08 01:28:03;;;;;;;;;;;;;;;21.58;26.55;94244.09;1031035;28;1229;-74
2021/12/08 01:28:33;;;;;;;;;;;;;;;21.58;26.54;94243.31;1024800;28;1303;-74
2021/12/08 01:29:04;;;;;;;;;;;;;;;21.58;26.53;94241.44;1024073;28;1168;-75
2021/12/08 01:29:35;;;;;;;;;;;;;;;21.59;26.71;94239.59;1024451;29;1219;-74
2021/12/08 01:30:06;;;;;;;;;;;;;;;21.58;26.35;94232.75;1024734;28;1165;-74
2021/12/08 01:30:36;;;;;;;;;;;;;;;21.57;26.56;94234.66;1029003;28;753;-74
2021/12/08 01:31:07;;;;;;;;;;;;;;;21.57;26.65;94234.66;1032059;28;1180;-73
2021/12/08 01:31:41;;;;;;;;;;;;;;;21.58;26.36;94249.38;1028445;28;1375;-75
2021/12/08 01:32:11;;;;;;;;;;;;;;;21.57;26.75;94239.91;1026113;28;1244;-74
2021/12/08 01:32:41;;;;;;;;;;;;;;;21.58;26.54;94240.66;1020124;29;1974;-74
2021/12/08 01:33:12;;;;;;;;;;;;;;;21.57;26.45;94241.78;1016545;29;1377;-72
2021/12/08 01:33:42;;;;;;;;;;;;;;;21.57;26.71;94231.22;1022691;29;1454;-74
2021/12/08 01:34:13;;;;;;;;;;;;;;;21.58;26.45;94230.13;1028532;28;1379;-74
2021/12/08 01:34:43;;;;;;;;;;;;;;;21.58;26.68;94236.19;1028728;28;1392;-74
2021/12/08 01:35:14;;;;;;;;;;;;;;;21.58;26.68;94230.13;1036367;28;1394;-75
2021/12/08 01:35:44;;;;;;;;;;;;;;;21.58;26.75;94230.13;1029508;28;1622;-73
2021/12/08 01:36:15;;;;;;;;;;;;;;;21.58;26.62;94230.13;1032324;28;1022;-74
2021/12/08 01:36:45;;;;;;;;;;;;;;;21.58;26.90;94230.13;1032206;28;1105;-74
2021/12/08 01:37:16;;;;;;;;;;;;;;;21.57;26.44;94229.38;1032603;28;990;-74
2021/12/08 01:37:46;;;;;;;;;;;;;;;21.58;26.43;94238.03;1039143;28;2140;-75
2021/12/08 01:38:16;;;;;;;;;;;;;;;21.59;26.54;94226.41;1036762;28;990;-74
2021/12/08 01:38:47;;;;;;;;;;;;;;;21.58;26.48;94227.50;1036518;28;1231;-74
2021/12/08 01:39:17;;;;;;;;;;;;;;;21.58;26.48;94232.75;1031871;28;1176;-74
2021/12/08 01:39:48;;;;;;;;;;;;;;;21.58;26.59;94235.41;1032290;28;1204;-75
2021/12/08 01:40:18;;;;;;;;;;;;;;;21.57;26.71;94226.72;1032631;28;948;-74
2021/12/08 01:40:48;;;;;;;;;;;;;;;21.57;26.51;94228.59;1032253;28;1259;-75
2021/12/08 01:41:21;;;;;;;;;;;;;;;21.58;26.43;94227.50;1036543;28;729;-74
2021/12/08 01:41:53;;;;;;;;;;;;;;;21.58;26.56;94230.13;1035442;28;1248;-74
2021/12/08 01:42:30;;;;;;;;;;;;;;;21.57;26.70;94228.59;1019740;29;1647;-74
2021/12/08 01:43:02;;;;;;;;;;;;;;;21.57;26.61;94225.97;1024189;28;1212;-74
2021/12/08 01:46:01;;;;;;;;;;;;;;;21.56;26.27;94222.53;1027441;28;1611;-74
2021/12/08 01:46:31;;;;;;;;;;;;;;;21.58;26.78;94222.22;1029461;28;793;-74
2021/12/08 01:47:01;;;;;;;;;;;;;;;21.57;26.38;94224.09;1027845;28;1169;-74
2021/12/08 01:47:32;;;;;;;;;;;;;;;21.58;26.03;94219.56;1022921;29;1249;-74
2021/12/08 01:48:03;;;;;;;;;;;;;;;21.58;26.41;94216.94;1021288;29;1850;-74
2021/12/08 01:48:35;;;;;;;;;;;;;;;21.58;26.42;94222.22;1020704;29;829;-74
2021/12/08 01:49:05;;;;;;;;;;;;;;;21.57;26.41;94212.78;1027404;28;1145;-74
2021/12/08 01:49:35;;;;;;;;;;;;;;;21.58;26.37;94216.94;1036370;28;769;-74
2021/12/08 01:50:06;;;;;;;;;;;;;;;21.57;26.49;94208.28;1029533;28;1140;-74
2021/12/08 01:50:36;;;;;;;;;;;;;;;21.59;26.65;94210.59;1024482;29;1238;-74
2021/12/08 01:51:10;;;;;;;;;;;;;;;21.58;26.35;94211.66;1023581;29;1078;-75
2021/12/08 01:51:41;;;;;;;;;;;;;;;21.58;26.46;94209.81;1021220;29;864;-73
2021/12/08 01:52:11;;;;;;;;;;;;;;;21.57;26.64;94205.66;1029102;28;1125;-74
2021/12/08 01:52:41;;;;;;;;;;;;;;;21.57;26.55;94210.91;1032782;28;1918;-75
2021/12/08 01:53:12;;;;;;;;;;;;;;;21.58;26.48;94211.66;1028861;28;1799;-72
2021/12/08 01:53:43;;;;;;;;;;;;;;;21.57;26.35;94208.28;1029160;28;1806;-75
2021/12/08 01:54:13;;;;;;;;;;;;;;;21.58;26.62;94203.75;1028271;28;1321;-74
2021/12/08 01:54:44;;;;;;;;;;;;;;;21.58;26.56;94203.75;1032926;28;962;-74
2021/12/08 01:55:15;;;;;;;;;;;;;;;21.57;26.70;94207.50;1032294;28;1407;-73
2021/12/08 01:55:46;;;;;;;;;;;;;;;21.57;26.21;94208.28;1028801;28;1258;-73
2021/12/08 01:56:16;;;;;;;;;;;;;;;21.58;26.59;94209.03;1024629;29;999;-74
2021/12/08 01:56:47;;;;;;;;;;;;;;;21.58;26.55;94203.75;1024772;28;1003;-74
2021/12/08 01:57:17;;;;;;;;;;;;;;;21.57;26.65;94208.28;1024413;28;1666;-74
2021/12/08 01:57:48;;;;;;;;;;;;;;;21.58;26.49;94209.03;1024716;28;1162;-73
2021/12/08 01:58:18;;;;;;;;;;;;;;;21.57;26.34;94207.50;1024246;29;1450;-73
2021/12/08 01:58:48;;;;;;;;;;;;;;;21.57;26.45;94210.13;1024428;28;1259;-74
2021/12/08 01:59:19;;;;;;;;;;;;;;;21.58;26.54;94207.19;1019704;29;1185;-74
2021/12/08 01:59:49;;;;;;;;;;;;;;;21.57;26.25;94205.66;1024504;29;1169;-74
2021/12/08 02:00:24;;;;;;;;;;;;;;;21.58;26.64;94211.66;1024504;29;825;-75
2021/12/08 02:00:56;;;;;;;;;;;;;;;21.58;26.75;94207.19;1022760;28;1732;-75
2021/12/08 02:01:27;;;;;;;;;;;;;;;21.59;26.43;94205.31;1031952;28;1315;-73
2021/12/08 02:01:57;;;;;;;;;;;;;;;21.58;27.05;94204.53;1028207;28;1329;-75
2021/12/08 02:02:27;;;;;;;;;;;;;;;21.59;26.44;94205.31;1028474;28;1255;-75
2021/12/08 02:02:58;;;;;;;;;;;;;;;21.58;26.50;94209.81;1032462;28;1160;-74
2021/12/08 02:03:28;;;;;;;;;;;;;;;21.58;26.30;94209.03;1023428;28;2114;-75
2021/12/08 02:04:03;;;;;;;;;;;;;;;21.58;26.35;94209.81;1029238;28;1181;-75
2021/12/08 02:04:34;;;;;;;;;;;;;;;21.59;26.33;94223.78;1028754;28;1463;-76
2021/12/08 02:05:05;;;;;;;;;;;;;;;21.59;26.22;94218.50;1028950;28;1488;-76
2021/12/08 02:05:35;;;;;;;;;;;;;;;21.59;26.15;94214.00;1034707;28;1153;-76
2021/12/08 02:06:07;;;;;;;;;;;;;;;21.59;26.41;94210.59;1033007;28;1065;-74
2021/12/08 02:06:38;;;;;;;;;;;;;;;21.56;26.45;94211.22;1032332;28;1180;-75
2021/12/08 02:07:09;;;;;;;;;;;;;;;21.45;25.97;94213.41;1024294;29;1448;-75
2021/12/08 02:07:41;;;;;;;;;;;;;;;21.29;25.74;94215.03;1023902;28;2180;-75
2021/12/08 02:08:32;;;;;;;;;;;;;;;21.00;25.39;94210.41;1020815;29;2249;-74
2021/12/08 02:09:22;;;;;;;;;;;;;;;20.71;25.00;94207.63;1031478;28;1133;-74
2021/12/08 02:10:13;;;;;;;;;;;;;;;20.42;24.60;94198.84;1029216;28;1149;-74
2021/12/08 02:11:04;;;;;;;;;;;;;;;20.17;24.63;94210.84;1029561;28;1053;-74
2021/12/08 02:11:56;;;;;;;;;;;;;;;19.92;24.30;94204.47;1031996;28;975;-74
2021/12/08 02:12:47;;;;;;;;;;;;;;;19.67;24.28;94199.91;1035479;28;1403;-73
2021/12/08 02:13:39;;;;;;;;;;;;;;;19.43;24.47;94195.00;1031281;28;2216;-74
2021/12/08 02:14:31;;;;;;;;;;;;;;;19.27;24.31;94190.41;1031665;28;869;-74
2021/12/08 02:15:22;;;;;;;;;;;;;;;19.10;24.22;94198.97;1031624;28;1058;-74
2021/12/08 02:16:14;;;;;;;;;;;;;;;18.97;24.10;94201.69;1036185;28;1014;-76
2021/12/08 02:17:06;;;;;;;;;;;;;;;18.85;24.54;94199.63;1031158;28;2154;-72
2021/12/08 02:17:57;;;;;;;;;;;;;;;18.91;24.76;94203.69;1032541;28;1112;-74
2021/12/08 02:18:48;;;;;;;;;;;;;;;19.02;24.75;94202.34;1034702;28;1247;-75
2021/12/08 02:19:25;;;;;;;;;;;;;;;19.13;25.11;94203.63;1026584;28;1196;-75
2021/12/08 02:20:16;;;;;;;;;;;;;;;19.27;25.34;94193.03;1030484;28;1266;-74
2021/12/08 02:21:25;;;;;;;;;;;;;;;19.39;24.98;94194.06;1031852;28;1269;-75
2021/12/08 02:21:56;;;;;;;;;;;;;;;19.54;25.23;94194.75;1034267;28;1369;-74
2021/12/08 02:22:42;;;;;;;;;;;;;;;19.64;25.56;94199.75;1039235;28;1305;-71
2021/12/08 02:23:27;;;;;;;;;;;;;;;19.73;25.33;94201.31;1032423;28;1881;-74
2021/12/08 02:24:17;;;;;;;;;;;;;;;19.84;25.28;94191.28;1028046;28;1126;-76
2021/12/08 02:24:53;;;;;;;;;;;;;;;19.89;25.10;94186.66;1021080;29;1300;-75
2021/12/08 02:25:24;;;;;;;;;;;;;;;19.96;25.17;94188.84;1020420;29;1500;-75
2021/12/08 02:25:54;;;;;;;;;;;;;;;20.00;25.25;94190.56;1020489;29;1283;-75
2021/12/08 02:26:25;;;;;;;;;;;;;;;20.04;25.12;94191.50;1017429;29;896;-74
2021/12/08 02:27:07;;;;;;;;;;;;;;;20.12;25.73;94195.19;1020634;29;1271;-74
2021/12/08 02:27:55;;;;;;;;;;;;;;;20.17;25.64;94192.44;1021268;29;1537;-74
2021/12/08 02:28:46;;;;;;;;;;;;;;;20.22;25.77;94193.09;1023220;28;1548;-74
2021/12/08 02:29:31;;;;;;;;;;;;;;;20.26;25.90;94196.66;1029462;28;1145;-75
2021/12/08 02:30:14;;;;;;;;;;;;;;;20.32;26.13;94197.25;1037613;28;1212;-75
2021/12/08 02:31:19;;;;;;;;;;;;;;;20.38;25.78;94190.75;1032274;28;1145;-74
2021/12/08 02:31:59;;;;;;;;;;;;;;;20.42;25.80;94196.19;1027932;28;3428;-74
2021/12/08 02:47:30;;;;;;;;;;;;;;;20.86;25.89;94183.47;1031860;28;1110;-75
2021/12/08 02:47:53;;;;;;;;;;;;;;;20.88;25.98;94199.72;1024773;29;1290;-73
2021/12/08 02:48:25;;;;;;;;;;;;;;;20.88;25.76;94194.47;1027661;28;1280;-73
2021/12/08 02:48:56;;;;;;;;;;;;;;;20.91;25.82;94195.72;1022172;28;1307;-72
2021/12/08 02:49:26;;;;;;;;;;;;;;;20.90;25.77;94192.28;1026530;28;765;-74
2021/12/08 02:49:57;;;;;;;;;;;;;;;20.92;25.74;94197.25;1030682;28;1161;-74
2021/12/08 02:50:35;;;;;;;;;;;;;;;20.93;25.53;94196.16;1033362;28;972;-73
2021/12/08 02:51:05;;;;;;;;;;;;;;;20.93;25.56;94196.94;1036249;28;1475;-74
2021/12/08 02:51:36;;;;;;;;;;;;;;;20.93;25.92;94196.94;1034197;28;1058;-73
2021/12/08 02:52:08;;;;;;;;;;;;;;;20.94;25.69;94195.06;1037197;28;1199;-74
2021/12/08 02:52:39;;;;;;;;;;;;;;;20.94;25.71;94201.13;1025095;28;1979;-74
2021/12/08 02:53:09;;;;;;;;;;;;;;;20.95;25.86;94191.38;1028352;28;1098;-74
2021/12/08 02:53:40;;;;;;;;;;;;;;;20.96;25.78;94198.16;1027817;28;1729;-74
2021/12/08 02:54:10;;;;;;;;;;;;;;;20.97;25.75;94191.81;1028578;28;1130;-73
2021/12/08 02:54:44;;;;;;;;;;;;;;;20.97;25.66;94195.25;1033371;28;1047;-74
2021/12/08 02:55:16;;;;;;;;;;;;;;;20.98;25.64;94198.63;1033218;28;1170;-74
2021/12/08 02:55:46;;;;;;;;;;;;;;;20.98;25.71;94196.78;1028778;28;1493;-73
2021/12/08 02:56:17;;;;;;;;;;;;;;;20.98;25.54;94194.13;1030015;28;1546;-75
2021/12/08 02:56:48;;;;;;;;;;;;;;;20.99;25.91;94197.56;1029063;28;1013;-74
2021/12/08 02:57:18;;;;;;;;;;;;;;;20.99;25.70;94184.38;1025115;28;1217;-74
2021/12/08 02:57:49;;;;;;;;;;;;;;;20.99;25.57;94187.78;1029051;28;1217;-74
2021/12/08 02:58:19;;;;;;;;;;;;;;;21.00;25.48;94186.69;1029166;28;1179;-74
2021/12/08 02:58:50;;;;;;;;;;;;;;;21.00;25.70;94193.81;1019055;29;2406;-74
2021/12/08 02:59:22;;;;;;;;;;;;;;;21.00;25.50;94189.31;1024372;29;1340;-74
2021/12/08 02:59:52;;;;;;;;;;;;;;;21.02;25.74;94191.66;1025151;28;979;-74
2021/12/08 03:00:25;;;;;;;;;;;;;;;21.02;25.59;94189.81;1023019;28;1307;-75
2021/12/08 03:00:57;;;;;;;;;;;;;;;21.02;25.53;94187.19;1030673;28;1098;-74
2021/12/08 03:01:28;;;;;;;;;;;;;;;21.03;25.50;94185.34;1033267;28;1038;-74
2021/12/08 03:01:59;;;;;;;;;;;;;;;21.04;25.54;94192.16;1030642;28;2113;-75
2021/12/08 03:02:29;;;;;;;;;;;;;;;21.04;25.62;94192.16;1025937;28;1086;-74
2021/12/08 03:02:59;;;;;;;;;;;;;;;21.04;25.73;94187.66;1029265;28;1062;-74
2021/12/08 03:03:30;;;;;;;;;;;;;;;21.06;25.79;94192.63;1024539;29;2046;-74
2021/12/08 03:04:00;;;;;;;;;;;;;;;21.05;25.58;94194.47;1025175;28;1090;-74
2021/12/08 03:04:31;;;;;;;;;;;;;;;21.07;25.54;94194.16;1029175;28;876;-75
2021/12/08 03:05:01;;;;;;;;;;;;;;;21.06;25.54;94192.63;1033067;28;1375;-74
2021/12/08 03:05:31;;;;;;;;;;;;;;;21.06;25.77;94190.75;1037332;28;1223;-74
2021/12/08 03:06:02;;;;;;;;;;;;;;;21.07;25.42;94188.88;1036441;28;1096;-75
2021/12/08 03:06:32;;;;;;;;;;;;;;;21.08;25.83;94187.03;1035857;28;1452;-72
2021/12/08 03:07:03;;;;;;;;;;;;;;;21.08;25.72;94191.19;1028642;28;1517;-74
2021/12/08 03:07:33;;;;;;;;;;;;;;;21.09;25.53;94197.25;1029268;28;792;-74
2021/12/08 03:08:04;;;;;;;;;;;;;;;21.11;25.91;94194.28;1025064;29;1240;-75
2021/12/08 03:08:34;;;;;;;;;;;;;;;21.11;25.80;94195.06;1024466;28;2113;-75
2021/12/08 03:09:05;;;;;;;;;;;;;;;21.10;25.94;94193.53;1025041;29;1071;-72
2021/12/08 03:09:35;;;;;;;;;;;;;;;21.12;25.60;94195.84;1021255;29;1354;-75
2021/12/08 03:10:07;;;;;;;;;;;;;;;21.11;25.81;94191.66;1018352;29;1103;-76
2021/12/08 03:10:38;;;;;;;;;;;;;;;21.11;25.80;94199.56;1017761;29;1023;-75
2021/12/08 03:11:09;;;;;;;;;;;;;;;21.12;25.69;94188.72;1022281;28;1158;-75
2021/12/08 03:11:39;;;;;;;;;;;;;;;21.12;25.77;94186.09;1028856;28;1765;-74
2021/12/08 03:12:09;;;;;;;;;;;;;;;21.11;25.84;94179.25;1028826;28;1282;-73